• Join FlightAware (Why Join?)
  • Login
  • US Flag 
03:01AM EDT


 

Airport Tracker/Info


-or-


 

Live Flight TrackerFlight Track Log ✈ C-FYJH ✈ 29-Apr-2012 ✈ CYHZ - CYYT

Flight Track Log - Related Links

Times and Time Zones

All times are in EDT time to prevent confusion due to time zone crossing. See the C-FYJH flight status page for this flight to view local times or setup timezone preferences in your user account.

Time Position Orientation Groundspeed Altitude Reporting Facility
EDT Latitude Longitude Course Direction KTS MPH feet Rate Location/Type
07:30PM 44.8946 -63.4684 288° West  Level FlightAware Approximate
07:31PM 44.9493 -63.3101 260° West  Level FlightAware Approximate
07:32PM 44.9167 -63.5667 55° Northeast 140 161 4,500  Level Moncton Center
07:33PM 44.9500 -63.5000 65° Northeast 220 253 6,600 2,700 Climbing Moncton Center
07:34PM 44.9833 -63.4000 68° East 270 311 9,900 2,460 Climbing Moncton Center
07:35PM 45.0167 -63.2833 70° East 320 368 11,600 2,040 Climbing Moncton Center
07:36PM 45.0500 -63.1500 65° Northeast 380 437 14,000 2,760 Climbing Moncton Center
07:37PM 45.1000 -63.0000 65° Northeast 400 460 17,200 2,820 Climbing Moncton Center
07:38PM 45.1500 -62.8500 70° East 400 460 19,700 2,280 Climbing Moncton Center
07:39PM 45.1833 -62.7167 74° East 420 483 21,800 2,100 Climbing Moncton Center
07:40PM 45.2167 -62.5500 67° East 430 495 23,900 1,680 Climbing Moncton Center
07:41PM 45.2667 -62.3833 63° Northeast 440 506 25,200 1,500 Climbing Moncton Center
07:42PM 45.3333 -62.2000 74° East 460 529 27,000 1,500 Climbing Moncton Center
07:43PM 45.3667 -62.0333 63° Northeast 460 529 28,200 1,500 Climbing Moncton Center
07:44PM 45.4333 -61.8500 74° East 480 552 30,000 1,260 Climbing Moncton Center
07:45PM 45.4667 -61.6833 69° East 480 552 30,800 1,200 Climbing Moncton Center
07:46PM 45.5167 -61.5000 69° East 480 552 32,400 1,500 Climbing Moncton Center
07:47PM 45.5667 -61.3167 67° East 490 564 33,800 1,320 Climbing Moncton Center
07:48PM 45.6167 -61.1500 69° East 480 552 35,100 1,140 Climbing Moncton Center
07:49PM 45.6667 -60.9667 69° East 480 552 36,100 900 Climbing Moncton Center
07:50PM 45.7167 -60.7833 69° East 480 552 36,900 420 Climbing Moncton Center
07:51PM 45.7667 -60.6000 80° East 480 552 37,000  Climbing Moncton Center
07:52PM 45.7833 -60.4667 67° East 490 564 37,000  Level Gander Center
07:53PM 45.8333 -60.3000 70° East 500 575 37,000  Level Gander Center
07:54PM 45.8833 -60.1000 69° East 500 575 37,000  Level Gander Center
07:55PM 45.9333 -59.9167 70° East 500 575 37,000  Level Gander Center
07:56PM 45.9833 -59.7167 67° East 500 575 37,000  Level Gander Center
07:57PM 46.0333 -59.5500 64° Northeast 500 575 37,000  Level Gander Center
07:58PM 46.1000 -59.3500 75° East 510 587 37,000  Level Gander Center
07:59PM 46.1333 -59.1667 70° East 510 587 37,000  Level Gander Center
08:00PM 46.1833 -58.9667 70° East 510 587 37,000  Level Gander Center
08:01PM 46.2333 -58.7667 68° East 510 587 37,000  Level Gander Center
08:02PM 46.2833 -58.5833 76° East 510 587 37,000  Level Gander Center
08:03PM 46.3167 -58.3833 70° East 500 575 37,000  Level Gander Center
08:04PM 46.3667 -58.1833 66° East 500 575 37,000  Level Gander Center
08:05PM 46.4167 -58.0167 76° East 500 575 37,000  Level Gander Center
08:06PM 46.4500 -57.8167 70° East 510 587 37,000  Level Gander Center
08:07PM 46.5000 -57.6167 70° East 510 587 37,000  Level Gander Center
08:08PM 46.5500 -57.4167 76° East 510 587 37,000  Level Gander Center
08:09PM 46.5833 -57.2167 68° East 510 587 37,000  Level Gander Center
08:10PM 46.6333 -57.0333 75° East 510 587 37,000  Level Gander Center
08:11PM 46.6667 -56.8500 71° East 510 587 37,000  Level Gander Center
08:12PM 46.7167 -56.6333 75° East 510 587 37,000  Level Gander Center
08:13PM 46.7500 -56.4500 64° Northeast 510 587 37,000  Level Gander Center
08:14PM 46.8167 -56.2500 84° East 510 587 37,000  Level Gander Center
08:15PM 46.8333 -56.0333 62° Northeast 510 587 37,000  Level Gander Center
08:16PM 46.9000 -55.8500 77° East 510 587 37,000  Level Gander Center
08:17PM 46.9333 -55.6333 68° East 520 598 37,000  Level Gander Center
08:18PM 46.9833 -55.4500 76° East 520 598 37,000  Level Gander Center
08:19PM 47.0167 -55.2500 77° East 520 598 37,000  Level Gander Center
08:20PM 47.0500 -55.0333 68° East 520 598 37,000  Level Gander Center
08:21PM 47.1000 -54.8500 77° East 520 598 37,000 -300 Level Gander Center
08:22PM 47.1333 -54.6333 71° East 520 598 36,400 -2,040 Descending Gander Center
08:23PM 47.1833 -54.4167 76° East 520 598 33,000 -3,540 Descending Gander Center
08:24PM 47.2167 -54.2167 77° East 550 633 29,400 -3,600 Descending Gander Center
08:25PM 47.2500 -54.0000 71° East 550 633 25,900 -4,320 Descending Gander Center
08:26PM 47.3000 -53.7833 68° East 530 610 20,800 -4,860 Descending Gander Center
08:27PM 47.3500 -53.6000 82° East 500 575 16,200 -3,960 Descending Gander Center
08:28PM 47.3667 -53.4333 50° Northeast 450 518 12,900 -2,340 Descending Gander Center
08:29PM 47.4333 -53.3167 40° Northeast 370 426 11,600 -1,800 Descending Gander Center
08:30PM 47.5000 -53.2333 27° Northeast 330 380 9,300 -2,160 Descending Gander Center
08:31PM 47.5667 -53.1833 39° Northeast 310 357 7,300 -1,920 Descending Gander Center
08:32PM 47.6500 -53.0833 27° Northeast 300 345 5,500 -1,680 Descending Gander Center
08:33PM 47.7167 -53.0333 73° East 290 334 4,000 -1,080 Descending Gander Center
08:34PM 47.7333 -52.9500 90° East 250 288 3,400 -300 Descending Gander Center
08:35PM 47.7333 -52.8500 146° Southeast 220 253 3,400 -300 Level Gander Center
08:36PM 47.7000 -52.8167 146° Southeast 180 207 2,800 -840 Descending Gander Center
08:37PM 47.6500 -52.7667 116° Southeast 170 196 1,800 -900 Descending Gander Center
08:38PM 47.6333 -52.7167 116° Southeast 130 150 1,100 -720 Descending Gander Center